createdAt,value
2018-07-21T00:01:29.899Z,5.30
2018-07-21T00:03:57.022Z,4.58
2018-07-21T00:06:24.140Z,5.30
2018-07-21T00:08:51.234Z,4.97
2018-07-21T00:11:18.364Z,5.50
2018-07-21T00:13:45.507Z,5.10
2018-07-21T00:16:12.656Z,5.60
2018-07-21T00:18:39.903Z,4.93
2018-07-21T00:21:07.110Z,4.70
2018-07-21T00:23:34.307Z,5.10
2018-07-21T00:26:01.503Z,4.90
2018-07-21T00:28:28.661Z,5.23
2018-07-21T00:30:55.794Z,4.57
2018-07-21T00:33:22.899Z,5.23
2018-07-21T00:35:50.026Z,5.40
2018-07-21T00:38:17.136Z,4.77
2018-07-21T00:40:44.278Z,4.63
2018-07-21T00:43:11.403Z,5.00
2018-07-21T00:45:38.606Z,5.03
2018-07-21T00:48:06.071Z,5.47
2018-07-21T00:50:33.272Z,5.37
2018-07-21T00:53:00.398Z,4.93
2018-07-21T00:55:27.565Z,5.47
2018-07-21T00:57:54.665Z,5.33
2018-07-21T01:00:21.813Z,5.33
2018-07-21T01:02:49.000Z,5.20
2018-07-21T01:05:16.558Z,5.10
2018-07-21T01:07:43.711Z,5.13
2018-07-21T01:10:10.843Z,5.13
2018-07-21T01:12:38.063Z,5.17
2018-07-21T01:15:05.760Z,5.10
2018-07-21T01:17:32.996Z,5.20
2018-07-21T01:20:00.117Z,4.97
2018-07-21T01:22:27.259Z,5.47
2018-07-21T01:24:54.358Z,5.00
2018-07-21T01:27:21.610Z,5.10
2018-07-21T01:29:48.715Z,5.07
2018-07-21T01:32:15.822Z,5.10
2018-07-21T01:34:42.950Z,4.33
2018-07-21T01:37:10.066Z,5.40
2018-07-21T01:39:37.253Z,5.23
2018-07-21T01:42:04.493Z,5.13
2018-07-21T01:44:31.641Z,5.20
2018-07-21T01:46:58.748Z,5.33
2018-07-21T01:49:25.866Z,5.30
2018-07-21T01:51:53.073Z,5.83
2018-07-21T01:54:20.214Z,5.40
2018-07-21T01:56:47.351Z,5.27
2018-07-21T01:59:14.458Z,5.83
2018-07-21T02:01:41.557Z,5.57
2018-07-21T02:04:08.758Z,5.33
2018-07-21T02:06:35.930Z,5.27
2018-07-21T02:09:05.054Z,5.20
2018-07-21T02:11:32.605Z,4.87
2018-07-21T02:13:59.724Z,5.47
2018-07-21T02:16:26.934Z,4.70
2018-07-21T02:18:54.057Z,5.67
2018-07-21T02:21:21.185Z,4.93
2018-07-21T02:23:48.384Z,4.67
2018-07-21T02:26:15.440Z,4.90
2018-07-21T02:28:42.561Z,5.37
2018-07-21T02:31:09.669Z,5.40
2018-07-21T02:33:36.910Z,5.13
2018-07-21T02:36:04.227Z,5.47
2018-07-21T02:38:31.447Z,5.40
2018-07-21T02:40:58.566Z,5.03
2018-07-21T02:43:25.713Z,5.00
2018-07-21T02:45:52.842Z,5.00
2018-07-21T02:48:19.945Z,5.03
2018-07-21T02:50:47.082Z,4.77
2018-07-21T02:53:14.188Z,5.30
2018-07-21T02:55:41.329Z,6.10
2018-07-21T02:58:08.515Z,5.43
2018-07-21T03:00:35.805Z,4.77
2018-07-21T03:03:03.070Z,5.60
2018-07-21T03:05:37.113Z,5.70
2018-07-21T03:08:05.065Z,5.30
2018-07-21T03:10:32.251Z,5.37
2018-07-21T03:12:59.514Z,6.43
2018-07-21T03:15:26.726Z,5.77
2018-07-21T03:17:54.634Z,5.60
2018-07-21T03:20:21.751Z,5.30
2018-07-21T03:22:48.893Z,5.90
2018-07-21T03:25:15.989Z,5.70
2018-07-21T03:27:43.101Z,5.97
2018-07-21T03:30:10.213Z,5.83
2018-07-21T03:32:37.346Z,5.20
2018-07-21T03:35:04.521Z,5.70
2018-07-21T03:37:31.703Z,5.53
2018-07-21T03:39:58.869Z,5.60
2018-07-21T03:42:26.042Z,5.63
2018-07-21T03:44:53.154Z,5.97
2018-07-21T03:47:20.279Z,6.67
2018-07-21T03:49:47.398Z,6.03
2018-07-21T03:52:14.755Z,5.67
2018-07-21T03:54:41.867Z,5.60
2018-07-21T03:57:09.285Z,5.57
2018-07-21T03:59:36.405Z,6.50
2018-07-21T04:02:03.714Z,6.00
2018-07-21T04:04:30.919Z,6.80
2018-07-21T04:06:58.102Z,6.33
2018-07-21T04:09:25.271Z,5.83
2018-07-21T04:11:52.397Z,6.60
2018-07-21T04:14:19.561Z,6.33
2018-07-21T04:16:46.674Z,6.87
2018-07-21T04:19:13.812Z,7.23
2018-07-21T04:21:40.914Z,6.93
2018-07-21T04:24:08.081Z,6.43
2018-07-21T04:26:35.172Z,6.33
2018-07-21T04:29:02.574Z,6.90
2018-07-21T04:31:29.844Z,6.87
2018-07-21T04:33:57.063Z,5.73
2018-07-21T04:36:24.953Z,5.87
2018-07-21T04:38:52.230Z,6.37
2018-07-21T04:41:19.366Z,5.37
2018-07-21T04:43:46.484Z,5.47
2018-07-21T04:46:13.606Z,5.27
2018-07-21T04:48:40.730Z,5.67
2018-07-21T04:51:07.900Z,5.60
2018-07-21T04:53:35.038Z,5.47
2018-07-21T04:56:02.218Z,5.60
2018-07-21T04:58:29.409Z,5.70
2018-07-21T05:00:56.763Z,5.67
2018-07-21T05:03:23.841Z,5.43
2018-07-21T05:05:50.951Z,5.10
2018-07-21T05:08:18.084Z,5.40
2018-07-21T05:10:45.196Z,5.80
2018-07-21T05:13:12.307Z,4.90
2018-07-21T05:15:39.432Z,4.97
2018-07-21T05:18:06.570Z,5.20
2018-07-21T05:20:33.734Z,4.70
2018-07-21T05:23:00.952Z,5.00
2018-07-21T05:25:28.183Z,4.13
2018-07-21T05:27:55.358Z,4.73
2018-07-21T05:30:22.513Z,4.00
2018-07-21T05:32:49.665Z,4.10
2018-07-21T05:35:16.801Z,4.47
2018-07-21T05:37:44.054Z,3.93
2018-07-21T05:40:11.161Z,3.80
2018-07-21T05:42:38.261Z,3.23
2018-07-21T05:45:05.617Z,3.50
2018-07-21T05:47:32.713Z,3.20
2018-07-21T05:49:59.915Z,2.83
2018-07-21T05:52:27.104Z,2.93
2018-07-21T05:54:54.273Z,3.30
2018-07-21T05:57:21.458Z,2.80
2018-07-21T05:59:48.706Z,3.10
2018-07-21T06:02:15.827Z,3.70
2018-07-21T06:04:42.961Z,3.20
2018-07-21T06:07:10.091Z,2.90
2018-07-21T06:09:37.223Z,2.70
2018-07-21T06:12:04.368Z,3.33
2018-07-21T06:14:31.529Z,3.30
2018-07-21T06:16:58.815Z,2.97
2018-07-21T06:19:26.049Z,3.43
2018-07-21T06:21:53.199Z,3.33
2018-07-21T06:24:20.313Z,2.80
2018-07-21T06:26:47.453Z,3.17
2018-07-21T06:29:14.602Z,2.70
2018-07-21T06:31:41.794Z,3.20
2018-07-21T06:34:08.939Z,2.63
2018-07-21T06:36:36.091Z,3.17
2018-07-21T06:39:06.477Z,3.30
2018-07-21T06:41:33.811Z,3.23
2018-07-21T06:44:01.248Z,3.00
2018-07-21T06:46:28.421Z,2.73
2018-07-21T06:48:55.743Z,2.57
2018-07-21T06:51:22.885Z,3.30
2018-07-21T06:53:49.997Z,2.80
2018-07-21T06:56:17.147Z,2.83
2018-07-21T06:58:44.258Z,2.83
2018-07-21T07:01:11.385Z,3.10
2018-07-21T07:03:38.784Z,2.93
2018-07-21T07:06:06.021Z,3.03
2018-07-21T07:08:33.223Z,3.03
2018-07-21T07:11:00.407Z,2.90
2018-07-21T07:13:27.575Z,2.93
2018-07-21T07:15:54.788Z,3.60
2018-07-21T07:18:21.944Z,3.47
2018-07-21T07:20:49.097Z,3.57
2018-07-21T07:23:16.245Z,3.10
2018-07-21T07:25:43.385Z,3.17
2018-07-21T07:28:10.509Z,3.10
2018-07-21T07:30:37.621Z,3.40
2018-07-21T07:33:04.815Z,4.00
2018-07-21T07:35:32.136Z,3.30
2018-07-21T07:37:59.451Z,2.87
2018-07-21T07:40:26.797Z,3.53
2018-07-21T07:42:53.904Z,3.13
2018-07-21T07:45:21.025Z,3.30
2018-07-21T07:47:48.154Z,3.42
2018-07-21T07:50:15.297Z,4.67
2018-07-21T07:52:42.401Z,3.35
2018-07-21T07:55:09.550Z,3.17
2018-07-21T07:57:36.692Z,3.40
2018-07-21T08:00:04.251Z,3.50
2018-07-21T08:02:31.547Z,3.17
2018-07-21T08:04:59.124Z,3.20
2018-07-21T08:07:26.404Z,4.03
2018-07-21T08:09:53.516Z,3.75
2018-07-21T08:12:20.840Z,3.47
2018-07-21T08:14:48.105Z,4.00
2018-07-21T08:17:15.374Z,3.93
2018-07-21T08:19:42.481Z,3.23
2018-07-21T08:22:09.653Z,3.70
2018-07-21T08:24:36.990Z,3.72
2018-07-21T08:27:04.502Z,3.50
2018-07-21T08:29:31.706Z,3.63
2018-07-21T08:31:58.886Z,3.60
2018-07-21T08:34:26.106Z,3.73
2018-07-21T08:36:53.509Z,3.50
2018-07-21T08:39:20.634Z,4.15
2018-07-21T08:41:47.758Z,3.95
2018-07-21T08:44:14.902Z,3.55
2018-07-21T08:46:42.055Z,3.98
2018-07-21T08:49:09.193Z,4.03
2018-07-21T08:51:36.330Z,4.10
2018-07-21T08:54:03.719Z,4.60
2018-07-21T08:56:30.987Z,4.12
2018-07-21T08:58:58.224Z,4.47
2018-07-21T09:01:25.427Z,4.75
2018-07-21T09:03:52.594Z,4.43
2018-07-21T09:06:19.773Z,4.83
2018-07-21T09:08:46.894Z,4.77
2018-07-21T09:11:14.023Z,4.80
2018-07-21T09:13:41.159Z,4.90
2018-07-21T09:16:08.874Z,4.63
2018-07-21T09:18:36.093Z,5.43
2018-07-21T09:21:03.345Z,5.10
2018-07-21T09:23:30.503Z,5.55
2018-07-21T09:25:57.715Z,5.23
2018-07-21T09:28:24.843Z,5.70
2018-07-21T09:30:51.987Z,5.40
2018-07-21T09:33:19.206Z,5.57
2018-07-21T09:35:46.418Z,4.62
2018-07-21T09:38:13.547Z,5.67
2018-07-21T09:40:40.777Z,5.37
2018-07-21T09:43:08.216Z,5.15
2018-07-21T09:45:35.497Z,5.30
2018-07-21T09:48:02.943Z,6.63
2018-07-21T09:50:30.090Z,5.63
2018-07-21T09:52:57.241Z,5.30
2018-07-21T09:55:24.368Z,5.97
2018-07-21T09:57:51.550Z,5.00
2018-07-21T10:01:26.318Z,5.40
2018-07-21T10:03:53.483Z,5.17
2018-07-21T10:06:20.628Z,5.13
2018-07-21T10:08:47.753Z,5.57
2018-07-21T10:11:14.898Z,5.90
2018-07-21T10:13:42.117Z,6.03
2018-07-21T10:16:09.656Z,5.90
2018-07-21T10:18:36.902Z,5.77
2018-07-21T10:21:04.343Z,5.87
2018-07-21T10:23:31.630Z,5.87
2018-07-21T10:26:04.498Z,6.20
2018-07-21T10:28:37.510Z,6.97
2018-07-21T10:31:04.934Z,6.33
2018-07-21T10:33:32.256Z,6.73
2018-07-21T10:35:59.496Z,7.10
2018-07-21T10:38:26.639Z,6.23
2018-07-21T10:40:53.752Z,7.00
2018-07-21T10:43:20.924Z,7.80
2018-07-21T10:45:48.056Z,7.23
2018-07-21T10:48:15.398Z,7.67
2018-07-21T10:50:42.588Z,7.73
2018-07-21T10:53:09.790Z,6.87
2018-07-21T10:55:36.997Z,8.23
2018-07-21T10:58:04.595Z,7.87
2018-07-21T11:00:32.038Z,7.97
2018-07-21T11:02:59.208Z,6.70
2018-07-21T11:05:26.357Z,7.97
2018-07-21T11:07:53.557Z,7.80
2018-07-21T11:10:20.694Z,7.67
2018-07-21T11:12:47.908Z,8.60
2018-07-21T11:15:15.131Z,8.60
2018-07-21T11:17:42.221Z,9.23
2018-07-21T11:20:09.424Z,9.03
2018-07-21T11:22:36.907Z,8.30
2018-07-21T11:25:05.124Z,8.97
2018-07-21T11:27:32.556Z,9.67
2018-07-21T11:29:59.719Z,9.63
2018-07-21T11:32:26.913Z,9.37
2018-07-21T11:34:54.066Z,9.37
2018-07-21T11:37:21.492Z,9.80
2018-07-21T11:39:48.961Z,9.50
2018-07-21T11:42:16.099Z,10.27
2018-07-21T11:44:43.256Z,9.60
2018-07-21T11:47:10.503Z,9.67
2018-07-21T11:49:38.040Z,10.30
2018-07-21T11:52:05.391Z,10.43
2018-07-21T11:54:32.896Z,11.33
2018-07-21T11:57:00.967Z,12.37
2018-07-21T11:59:28.832Z,13.10
2018-07-21T12:01:56.462Z,12.93
2018-07-21T12:04:24.182Z,14.63
2018-07-21T12:06:51.746Z,14.13
2018-07-21T12:09:18.909Z,14.70
2018-07-21T12:11:46.061Z,13.93
2018-07-21T12:14:13.214Z,14.05
2018-07-21T12:16:40.402Z,13.17
2018-07-21T12:19:07.622Z,14.50
2018-07-21T12:21:35.193Z,13.07
2018-07-21T12:24:02.506Z,14.87
2018-07-21T12:26:29.658Z,13.97
2018-07-21T12:28:56.817Z,15.33
2018-07-21T12:31:24.206Z,14.73
2018-07-21T12:33:51.371Z,14.47
2018-07-21T12:36:18.517Z,14.67
2018-07-21T12:38:45.700Z,15.00
2018-07-21T12:41:12.974Z,15.77
2018-07-21T12:43:40.246Z,17.97
2018-07-21T12:46:07.414Z,18.60
2018-07-21T12:48:34.601Z,17.03
2018-07-21T12:51:02.031Z,18.60
2018-07-21T12:53:29.182Z,18.77
2018-07-21T12:55:56.302Z,17.47
2018-07-21T12:58:23.442Z,18.90
2018-07-21T13:00:50.605Z,17.43
2018-07-21T13:03:17.756Z,17.50
2018-07-21T13:05:44.861Z,18.23
2018-07-21T13:08:12.006Z,18.73
2018-07-21T13:10:39.295Z,18.30
2018-07-21T13:13:06.566Z,19.63
2018-07-21T13:15:33.764Z,19.60
2018-07-21T13:18:00.921Z,18.07
2018-07-21T13:20:28.046Z,18.97
2018-07-21T13:22:55.170Z,16.83
2018-07-21T13:25:22.366Z,17.60
2018-07-21T13:27:49.498Z,17.07
2018-07-21T13:30:16.624Z,17.10
2018-07-21T13:32:43.749Z,16.63
2018-07-21T13:35:11.052Z,15.60
2018-07-21T13:37:38.499Z,17.00
2018-07-21T13:40:06.654Z,15.80
2018-07-21T13:42:33.998Z,16.30
2018-07-21T13:45:01.173Z,16.60
2018-07-21T13:47:28.285Z,15.35
2018-07-21T13:49:55.790Z,15.60
2018-07-21T13:52:23.043Z,15.23
2018-07-21T13:54:50.603Z,15.47
2018-07-21T13:57:17.785Z,15.40
2018-07-21T13:59:44.922Z,15.63
2018-07-21T14:02:12.082Z,15.60
2018-07-21T14:04:39.230Z,15.18
2018-07-21T14:07:06.582Z,13.13
2018-07-21T14:09:33.837Z,13.20
2018-07-21T14:12:01.033Z,14.80
2018-07-21T14:14:28.216Z,15.20
2018-07-21T14:16:55.450Z,17.23
2018-07-21T14:19:22.557Z,17.30
2018-07-21T14:21:49.667Z,17.40
2018-07-21T14:24:16.806Z,17.47
2018-07-21T14:26:43.937Z,15.20
2018-07-21T14:29:11.062Z,15.70
2018-07-21T14:31:38.522Z,15.87
2018-07-21T14:34:05.742Z,14.83
2018-07-21T14:36:33.158Z,13.83
2018-07-21T14:39:00.170Z,13.67
2018-07-21T14:41:27.323Z,12.90
2018-07-21T14:43:54.508Z,13.87
2018-07-21T14:46:21.752Z,13.43
2018-07-21T14:48:48.890Z,12.73
2018-07-21T14:51:16.041Z,13.53
2018-07-21T14:53:43.234Z,13.53
2018-07-21T14:56:10.538Z,13.23
2018-07-21T14:58:37.720Z,13.15
2018-07-21T15:01:04.962Z,12.77
2018-07-21T15:03:32.168Z,11.70
2018-07-21T15:06:14.193Z,12.05
2018-07-21T15:08:41.286Z,11.43
2018-07-21T15:11:08.401Z,13.43
2018-07-21T15:13:35.585Z,12.33
2018-07-21T15:16:02.710Z,12.90
2018-07-21T15:18:29.831Z,12.68
2018-07-21T15:20:56.934Z,13.88
2018-07-21T15:23:24.075Z,13.40
2018-07-21T15:25:51.340Z,12.25
2018-07-21T15:28:18.514Z,13.30
2018-07-21T15:30:45.626Z,11.90
2018-07-21T15:33:12.948Z,12.07
2018-07-21T15:35:40.080Z,11.15
2018-07-21T15:38:07.758Z,9.90
2018-07-21T15:40:34.918Z,8.88
2018-07-21T15:43:02.066Z,7.67
2018-07-21T15:45:29.247Z,6.45
2018-07-21T15:47:56.348Z,8.03
2018-07-21T15:50:23.480Z,7.45
2018-07-21T15:52:50.606Z,9.68
2018-07-21T15:55:17.743Z,8.60
2018-07-21T15:57:44.875Z,8.48
2018-07-21T16:00:11.993Z,8.88
2018-07-21T16:02:39.126Z,9.48
2018-07-21T16:05:06.282Z,9.45
2018-07-21T16:07:33.555Z,9.15
2018-07-21T16:10:00.672Z,9.53
2018-07-21T16:12:27.790Z,10.65
2018-07-21T16:14:54.949Z,9.10
2018-07-21T16:17:22.017Z,10.82
2018-07-21T16:19:49.146Z,9.93
2018-07-21T16:22:16.420Z,10.28
2018-07-21T16:24:43.655Z,9.65
2018-07-21T16:27:10.769Z,10.08
2018-07-21T16:29:37.871Z,9.45
2018-07-21T16:32:05.126Z,9.60
2018-07-21T16:34:32.638Z,8.58
2018-07-21T16:36:59.690Z,9.93
2018-07-21T16:39:26.794Z,11.35
2018-07-21T16:41:53.905Z,10.58
2018-07-21T16:44:21.007Z,10.68
2018-07-21T16:46:48.207Z,10.68
2018-07-21T16:49:15.314Z,10.15
2018-07-21T16:51:42.445Z,12.07
2018-07-21T16:54:09.569Z,11.45
2018-07-21T16:56:36.698Z,11.57
2018-07-21T16:59:04.026Z,12.27
2018-07-21T17:01:31.178Z,11.03
2018-07-21T17:03:58.305Z,12.17
2018-07-21T17:06:25.434Z,11.70
2018-07-21T17:08:52.553Z,11.97
2018-07-21T17:11:19.669Z,12.13
2018-07-21T17:13:46.810Z,11.75
2018-07-21T17:16:13.933Z,12.20
2018-07-21T17:18:41.097Z,12.50
2018-07-21T17:21:08.193Z,12.53
2018-07-21T17:23:35.610Z,12.83
2018-07-21T17:26:02.781Z,14.47
2018-07-21T17:28:29.905Z,12.27
2018-07-21T17:30:57.066Z,13.07
2018-07-21T17:33:24.193Z,12.33
2018-07-21T17:35:51.518Z,14.15
2018-07-21T17:38:18.640Z,13.00
2018-07-21T17:40:45.763Z,13.30
2018-07-21T17:43:12.874Z,13.53
2018-07-21T17:45:39.974Z,13.20
2018-07-21T17:48:07.114Z,14.70
2018-07-21T17:50:34.329Z,15.17
2018-07-21T17:53:01.465Z,16.37
2018-07-21T17:55:28.616Z,16.53
2018-07-21T17:57:55.741Z,18.75
2018-07-21T18:00:22.888Z,17.30
2018-07-21T18:02:50.045Z,14.53
2018-07-21T18:05:17.170Z,12.53
2018-07-21T18:07:44.342Z,11.57
2018-07-21T18:10:11.441Z,11.47
2018-07-21T18:12:38.755Z,12.20
2018-07-21T18:15:05.897Z,11.95
2018-07-21T18:17:33.077Z,11.08
2018-07-21T18:20:00.201Z,11.00
2018-07-21T18:22:27.317Z,11.37
2018-07-21T18:24:54.430Z,11.90
2018-07-21T18:27:21.544Z,11.68
2018-07-21T18:29:48.657Z,11.43
2018-07-21T18:32:15.807Z,12.10
2018-07-21T18:34:42.900Z,12.80
2018-07-21T18:37:10.170Z,12.47
2018-07-21T18:39:37.325Z,12.43
2018-07-21T18:42:04.475Z,12.47
2018-07-21T18:44:31.652Z,12.90
2018-07-21T18:46:59.223Z,13.10
2018-07-21T18:49:26.350Z,12.40
2018-07-21T18:51:53.465Z,13.33
2018-07-21T18:54:20.610Z,13.30
2018-07-21T18:56:47.758Z,12.17
2018-07-21T18:59:14.986Z,11.77
2018-07-21T19:01:42.108Z,12.57
2018-07-21T19:04:09.223Z,11.77
2018-07-21T19:06:36.355Z,11.43
2018-07-21T19:09:06.259Z,11.80
2018-07-21T19:11:33.434Z,12.37
2018-07-21T19:14:00.541Z,11.53
2018-07-21T19:16:40.094Z,11.10
2018-07-21T19:19:07.530Z,11.00
2018-07-21T19:21:34.740Z,11.60
2018-07-21T19:24:01.870Z,11.40
2018-07-21T19:26:34.862Z,11.57
2018-07-21T19:29:02.002Z,11.33
2018-07-21T19:31:29.129Z,11.93
2018-07-21T19:33:56.284Z,11.50
2018-07-21T19:36:23.429Z,12.20
2018-07-21T19:38:50.666Z,13.00
2018-07-21T19:41:23.476Z,12.17
2018-07-21T19:43:50.652Z,13.03
2018-07-21T19:46:17.888Z,13.27
2018-07-21T19:48:45.015Z,11.47
2018-07-21T19:51:12.149Z,11.80
2018-07-21T19:53:39.261Z,11.93
2018-07-21T19:56:06.401Z,11.63
2018-07-21T19:58:33.822Z,12.13
2018-07-21T20:01:00.982Z,11.80
2018-07-21T20:03:28.454Z,11.83
2018-07-21T20:05:55.652Z,12.00
2018-07-21T20:08:22.805Z,12.27
2018-07-21T20:10:49.920Z,11.43
2018-07-21T20:13:17.063Z,11.67
2018-07-21T20:15:44.175Z,11.97
2018-07-21T20:18:11.273Z,11.80
2018-07-21T20:20:38.805Z,12.23
2018-07-21T20:23:05.993Z,12.20
2018-07-21T20:25:33.658Z,12.93
2018-07-21T20:28:00.783Z,13.00
2018-07-21T20:30:27.960Z,13.73
2018-07-21T20:32:55.098Z,15.40
2018-07-21T20:35:22.190Z,16.03
2018-07-21T20:37:49.311Z,16.20
2018-07-21T20:40:16.438Z,15.80
2018-07-21T20:42:43.587Z,15.07
2018-07-21T20:45:10.750Z,13.63
2018-07-21T20:47:37.878Z,13.60
2018-07-21T20:50:05.077Z,14.60
2018-07-21T20:52:32.214Z,14.33
2018-07-21T20:54:59.359Z,12.90
2018-07-21T20:57:26.486Z,14.13
2018-07-21T20:59:53.595Z,14.67
2018-07-21T21:02:20.721Z,14.03
2018-07-21T21:04:47.855Z,13.20
2018-07-21T21:07:14.977Z,13.40
2018-07-21T21:09:42.109Z,14.23
2018-07-21T21:12:09.258Z,14.40
2018-07-21T21:14:36.437Z,15.17
2018-07-21T21:17:04.046Z,13.70
2018-07-21T21:19:31.305Z,13.67
2018-07-21T21:21:58.425Z,13.13
2018-07-21T21:24:25.523Z,11.63
2018-07-21T21:26:52.881Z,12.73
2018-07-21T21:29:20.007Z,12.23
2018-07-21T21:31:47.141Z,11.83
2018-07-21T21:34:14.260Z,12.10
2018-07-21T21:36:41.363Z,11.97
2018-07-21T21:39:10.443Z,11.70
2018-07-21T21:41:37.811Z,11.40
2018-07-21T21:44:05.634Z,13.50
2018-07-21T21:46:33.043Z,12.60
2018-07-21T21:49:00.179Z,12.70
2018-07-21T21:51:27.322Z,12.27
2018-07-21T21:53:54.743Z,13.73
2018-07-21T21:56:21.900Z,14.00
2018-07-21T21:58:49.157Z,14.10
2018-07-21T22:01:16.321Z,13.00
2018-07-21T22:03:44.010Z,13.13
2018-07-21T22:06:11.125Z,12.40
2018-07-21T22:08:38.384Z,11.47
2018-07-21T22:11:05.738Z,11.50
2018-07-21T22:13:32.971Z,12.23
2018-07-21T22:16:00.456Z,12.83
2018-07-21T22:18:28.522Z,12.60
2018-07-21T22:20:55.666Z,11.30
2018-07-21T22:23:22.829Z,10.33
2018-07-21T22:25:49.978Z,10.63
2018-07-21T22:28:17.085Z,10.67
2018-07-21T22:30:44.217Z,11.57
2018-07-21T22:33:11.371Z,10.87
2018-07-21T22:35:38.498Z,11.17
2018-07-21T22:38:05.721Z,11.17
2018-07-21T22:40:32.931Z,10.87
2018-07-21T22:43:00.055Z,11.47
2018-07-21T22:45:27.536Z,12.37
2018-07-21T22:47:54.815Z,11.70
2018-07-21T22:50:22.189Z,11.70
2018-07-21T22:52:49.413Z,10.83
2018-07-21T22:55:16.539Z,10.47
2018-07-21T22:57:43.658Z,10.50
2018-07-21T23:00:10.990Z,11.00
2018-07-21T23:02:38.626Z,9.90
2018-07-21T23:05:05.983Z,9.50
2018-07-21T23:07:33.325Z,10.70
2018-07-21T23:10:00.631Z,9.67
2018-07-21T23:12:27.779Z,10.23
2018-07-21T23:14:54.942Z,10.50
2018-07-21T23:17:22.084Z,10.50
2018-07-21T23:19:49.216Z,10.77
2018-07-21T23:22:16.409Z,10.70
2018-07-21T23:24:43.666Z,10.33
2018-07-21T23:27:11.862Z,11.77
2018-07-21T23:29:39.028Z,11.93
2018-07-21T23:32:06.280Z,12.57
2018-07-21T23:34:33.558Z,11.13
2018-07-21T23:37:00.707Z,11.20
2018-07-21T23:39:27.841Z,11.47
2018-07-21T23:41:54.946Z,10.77
2018-07-21T23:44:22.102Z,9.70
2018-07-21T23:46:49.233Z,10.03
2018-07-21T23:49:16.382Z,9.73
2018-07-21T23:51:43.574Z,10.13
2018-07-21T23:54:10.720Z,10.67
2018-07-21T23:56:38.137Z,10.83
2018-07-21T23:59:05.847Z,12.30
